HASGK ZZZZ-EDDH
Flight info
| Callsign | HASGK |
|---|---|
| Flight time | N/A |
| Altitude | |
| Route | |
| Aircraft | Z42 |
Departure
| Time | N/A |
|---|---|
| Airport | ZZZZ |
Arrival
| Time | 2026-04-24 20:18 |
|---|---|
| Airport | Hamburg Helmut Schmidt Airport (EDDH) |
| Time | Latitude | Longitude | Altitude | Speed | Heading |
|---|---|---|---|---|---|
| 2026-04-24 20:11 | 53.46415 | 10.00024 | 1404 ft | 110 kts | 358° |
| 2026-04-24 20:11 | 53.47177 | 10.00074 | 1408 ft | 109 kts | 353° |
| 2026-04-24 20:11 | 53.47930 | 10.00033 | 1451 ft | 107 kts | 351° |
| 2026-04-24 20:12 | 53.48679 | 10.00064 | 1458 ft | 108 kts | 356° |
| 2026-04-24 20:12 | 53.49429 | 10.00160 | 1467 ft | 107 kts | 358° |
| 2026-04-24 20:12 | 53.50166 | 10.00225 | 1511 ft | 104 kts | 354° |
| 2026-04-24 20:12 | 53.50885 | 10.00242 | 1572 ft | 103 kts | 355° |
| 2026-04-24 20:13 | 53.51615 | 10.00325 | 1583 ft | 106 kts | 359° |
| 2026-04-24 20:13 | 53.52356 | 10.00318 | 1568 ft | 108 kts | 353° |
| 2026-04-24 20:13 | 53.53160 | 10.00323 | 1346 ft | 116 kts | 355° |
| 2026-04-24 20:13 | 53.53925 | 10.00419 | 1437 ft | 107 kts | 357° |
| 2026-04-24 20:14 | 53.54702 | 10.00514 | 1351 ft | 113 kts | 355° |
| 2026-04-24 20:14 | 53.55460 | 10.00399 | 1402 ft | 105 kts | 358° |
| 2026-04-24 20:14 | 53.56200 | 10.00409 | 1415 ft | 106 kts | 355° |
| 2026-04-24 20:14 | 53.56982 | 10.00458 | 1226 ft | 120 kts | 358° |
| 2026-04-24 20:15 | 53.57848 | 10.00381 | 970 ft | 121 kts | 344° |
| 2026-04-24 20:15 | 53.58628 | 10.00100 | 1035 ft | 110 kts | 343° |
| 2026-04-24 20:15 | 53.59367 | 9.99800 | 1071 ft | 107 kts | 340° |
| 2026-04-24 20:15 | 53.60011 | 9.99516 | 1073 ft | 88 kts | 347° |
| 2026-04-24 20:16 | 53.60570 | 9.99876 | 1017 ft | 98 kts | 42° |
| 2026-04-24 20:16 | 53.60939 | 10.00869 | 1009 ft | 97 kts | 48° |
| 2026-04-24 20:16 | 53.61332 | 10.01834 | 1001 ft | 98 kts | 39° |
| 2026-04-24 20:16 | 53.61877 | 10.02307 | 839 ft | 87 kts | 357° |
| 2026-04-24 20:17 | 53.62445 | 10.02097 | 655 ft | 82 kts | 331° |
| 2026-04-24 20:17 | 53.63295 | 10.01132 | 374 ft | 69 kts | 317° |
| 2026-04-24 20:17 | 53.63593 | 10.00494 | 212 ft | 72 kts | 278° |
| 2026-04-24 20:18 | 53.63547 | 9.99953 | 121 ft | 69 kts | 255° |
| 2026-04-24 20:18 | 53.63294 | 9.99363 | 56 ft | 20 kts | 197° |
| 2026-04-24 20:18 | 53.63165 | 9.99325 | 56 ft | 14 kts | 189° |
| 2026-04-24 20:18 | 53.63117 | 9.99308 | 56 ft | 0 kts | 191° |
| 2026-04-24 20:20 | 53.63114 | 9.99307 | 56 ft | 4 kts | 194° |
| 2026-04-24 20:21 | 53.62995 | 9.99177 | 56 ft | 36 kts | 234° |
| 2026-04-24 20:21 | 53.62864 | 9.98904 | 57 ft | 31 kts | 234° |
| 2026-04-24 20:21 | 53.62696 | 9.98655 | 56 ft | 29 kts | 147° |
| 2026-04-24 20:21 | 53.62677 | 9.98736 | 56 ft | 0 kts | 243° |